createdAt,value
2017-10-15T00:01:43.264Z,30.27
2017-10-15T00:04:11.815Z,19.93
2017-10-15T00:06:39.473Z,17.70
2017-10-15T00:09:07.081Z,16.40
2017-10-15T00:11:35.451Z,15.90
2017-10-15T00:14:03.088Z,17.60
2017-10-15T00:16:30.705Z,19.70
2017-10-15T00:18:58.391Z,17.90
2017-10-15T00:21:25.993Z,18.83
2017-10-15T00:23:53.614Z,17.83
2017-10-15T00:26:21.249Z,13.40
2017-10-15T00:28:48.973Z,18.17
2017-10-15T00:31:18.149Z,21.73
2017-10-15T00:33:45.765Z,21.17
2017-10-15T00:36:14.149Z,12.13
2017-10-15T00:38:41.814Z,16.30
2017-10-15T00:41:09.433Z,15.53
2017-10-15T00:43:37.097Z,18.03
2017-10-15T00:46:04.712Z,19.73
2017-10-15T00:48:32.343Z,15.33
2017-10-15T00:51:00.768Z,17.17
2017-10-15T00:53:28.449Z,20.83
2017-10-15T00:55:56.114Z,21.63
2017-10-15T00:58:23.725Z,24.77
2017-10-15T01:00:51.375Z,17.90
2017-10-15T01:03:19.028Z,24.53
2017-10-15T01:05:47.406Z,24.43
2017-10-15T01:08:15.045Z,31.30
2017-10-15T01:10:42.706Z,21.17
2017-10-15T01:13:10.317Z,29.00
2017-10-15T01:15:37.909Z,25.43
2017-10-15T01:18:05.541Z,23.10
2017-10-15T01:20:33.145Z,23.93
2017-10-15T01:23:00.792Z,20.17
2017-10-15T01:25:28.394Z,16.10
2017-10-15T01:27:56.761Z,19.27
2017-10-15T01:30:25.261Z,16.80
2017-10-15T01:32:53.641Z,17.90
2017-10-15T01:35:22.013Z,18.67
2017-10-15T01:37:50.437Z,23.23
2017-10-15T01:40:18.143Z,21.40
2017-10-15T01:42:46.545Z,22.17
2017-10-15T01:45:14.926Z,20.07
2017-10-15T01:47:42.543Z,18.80
2017-10-15T01:50:10.179Z,21.93
2017-10-15T01:52:37.781Z,23.87
2017-10-15T01:55:05.424Z,31.60
2017-10-15T01:57:33.041Z,29.73
2017-10-15T02:00:00.660Z,25.60
2017-10-15T02:02:28.297Z,25.10
2017-10-15T02:04:55.892Z,26.60
2017-10-15T02:07:24.261Z,24.10
2017-10-15T02:09:51.903Z,22.63
2017-10-15T02:12:19.504Z,24.30
2017-10-15T02:14:47.873Z,22.97
2017-10-15T02:17:16.281Z,22.70
2017-10-15T02:19:43.889Z,29.53
2017-10-15T02:22:11.502Z,20.07
2017-10-15T02:24:39.141Z,24.23
2017-10-15T02:27:07.515Z,20.10
2017-10-15T02:29:35.917Z,27.27
2017-10-15T02:32:03.523Z,28.40
2017-10-15T02:34:31.124Z,16.63
2017-10-15T02:36:59.529Z,30.77
2017-10-15T02:39:27.141Z,31.03
2017-10-15T02:41:54.745Z,31.80
2017-10-15T02:44:22.409Z,18.93
2017-10-15T02:46:50.019Z,27.80
2017-10-15T02:49:17.629Z,30.27
2017-10-15T02:51:45.265Z,20.40
2017-10-15T02:54:13.637Z,16.90
2017-10-15T02:56:42.044Z,25.43
2017-10-15T02:59:09.732Z,14.37
2017-10-15T03:01:37.350Z,15.23
2017-10-15T03:04:05.745Z,20.67
2017-10-15T03:06:33.372Z,18.70
2017-10-15T03:09:01.017Z,20.60
2017-10-15T03:11:28.661Z,23.13
2017-10-15T03:13:56.275Z,25.47
2017-10-15T03:16:23.906Z,21.20
2017-10-15T03:18:51.514Z,22.63
2017-10-15T03:21:19.162Z,27.10
2017-10-15T03:23:46.789Z,29.63
2017-10-15T03:26:14.397Z,28.20
2017-10-15T03:28:42.093Z,26.87
2017-10-15T03:31:09.709Z,24.47
2017-10-15T03:33:37.361Z,26.07
2017-10-15T03:36:05.732Z,29.80
2017-10-15T03:38:34.107Z,24.07
2017-10-15T03:41:01.771Z,27.13
2017-10-15T03:43:30.156Z,25.27
2017-10-15T03:45:58.565Z,25.53
2017-10-15T03:48:26.172Z,23.00
2017-10-15T03:50:53.824Z,25.47
2017-10-15T03:53:21.422Z,26.40
2017-10-15T03:55:49.131Z,26.30
2017-10-15T03:58:16.773Z,22.90
2017-10-15T04:00:44.377Z,26.53
2017-10-15T04:03:12.001Z,25.63
2017-10-15T04:05:39.607Z,31.43
2017-10-15T04:08:07.262Z,23.10
2017-10-15T04:10:34.881Z,25.67
2017-10-15T04:13:02.488Z,24.10
2017-10-15T04:15:30.115Z,27.90
2017-10-15T04:17:57.722Z,25.10
2017-10-15T04:20:25.362Z,22.33
2017-10-15T04:22:52.963Z,25.53
2017-10-15T04:25:21.333Z,23.23
2017-10-15T04:27:49.863Z,24.37
2017-10-15T04:30:17.462Z,21.20
2017-10-15T04:32:45.869Z,20.90
2017-10-15T04:35:13.485Z,22.17
2017-10-15T04:37:41.089Z,20.10
2017-10-15T04:40:08.726Z,25.40
2017-10-15T04:42:36.346Z,31.47
2017-10-15T04:45:04.004Z,18.93
2017-10-15T04:47:31.619Z,31.30
2017-10-15T04:49:59.234Z,29.33
2017-10-15T04:52:26.875Z,33.67
2017-10-15T04:54:54.480Z,29.50
2017-10-15T04:57:22.113Z,32.47
2017-10-15T04:59:49.718Z,25.20
2017-10-15T05:02:18.167Z,30.20
2017-10-15T05:04:45.769Z,26.07
2017-10-15T05:07:14.165Z,26.27
2017-10-15T05:09:41.829Z,25.60
2017-10-15T05:12:09.442Z,26.13
2017-10-15T05:14:37.105Z,35.83
2017-10-15T05:17:04.713Z,26.03
2017-10-15T05:19:32.381Z,26.30
2017-10-15T05:21:59.991Z,24.57
2017-10-15T05:24:27.597Z,23.60
2017-10-15T05:26:55.229Z,26.73
2017-10-15T05:29:23.609Z,23.77
2017-10-15T05:31:52.001Z,23.47
2017-10-15T05:34:20.365Z,23.13
2017-10-15T05:36:48.796Z,25.37
2017-10-15T05:39:16.464Z,19.50
2017-10-15T05:41:44.070Z,21.67
2017-10-15T05:44:12.481Z,18.53
2017-10-15T05:46:40.157Z,18.97
2017-10-15T05:49:07.800Z,24.00
2017-10-15T05:51:35.401Z,18.90
2017-10-15T05:54:03.004Z,16.33
2017-10-15T05:56:31.401Z,19.97
2017-10-15T05:58:59.006Z,15.90
2017-10-15T06:01:26.667Z,18.70
2017-10-15T06:03:55.782Z,19.77
2017-10-15T06:06:24.222Z,15.90
2017-10-15T06:08:51.854Z,24.30
2017-10-15T06:11:19.455Z,19.87
2017-10-15T06:13:47.215Z,19.37
2017-10-15T06:16:14.822Z,23.50
2017-10-15T06:18:43.186Z,13.23
2017-10-15T06:21:10.825Z,23.40
2017-10-15T06:23:38.421Z,17.43
2017-10-15T06:26:06.824Z,25.70
2017-10-15T06:28:34.509Z,13.70
2017-10-15T06:31:02.114Z,13.93
2017-10-15T06:33:30.517Z,17.00
2017-10-15T06:35:58.150Z,22.13
2017-10-15T06:38:26.553Z,31.50
2017-10-15T06:40:54.168Z,16.97
2017-10-15T06:43:21.766Z,13.47
2017-10-15T06:45:49.409Z,16.13
2017-10-15T06:48:17.016Z,21.63
2017-10-15T06:50:44.654Z,13.47
2017-10-15T06:53:12.374Z,23.20
2017-10-15T06:55:39.981Z,15.20
2017-10-15T06:58:07.616Z,17.00
2017-10-15T07:00:35.229Z,15.57
2017-10-15T07:03:02.862Z,14.83
2017-10-15T07:05:30.489Z,13.47
2017-10-15T07:07:58.089Z,31.23
2017-10-15T07:10:25.735Z,14.27
2017-10-15T07:12:54.097Z,27.43
2017-10-15T07:15:21.772Z,11.90
2017-10-15T07:17:50.142Z,15.63
2017-10-15T07:20:17.883Z,12.17
2017-10-15T07:22:45.571Z,16.80
2017-10-15T07:25:13.973Z,24.10
2017-10-15T07:27:41.618Z,10.30
2017-10-15T07:30:10.030Z,16.10
2017-10-15T07:32:37.637Z,26.83
2017-10-15T07:35:05.338Z,23.63
2017-10-15T07:37:32.955Z,24.33
2017-10-15T07:40:00.590Z,15.40
2017-10-15T07:42:28.234Z,18.17
2017-10-15T07:44:55.877Z,15.57
2017-10-15T07:47:24.254Z,26.20
2017-10-15T07:49:52.634Z,24.87
2017-10-15T07:52:21.031Z,20.47
2017-10-15T07:54:48.655Z,20.77
2017-10-15T07:57:16.277Z,10.43
2017-10-15T07:59:43.884Z,22.73
2017-10-15T08:02:12.291Z,28.33
2017-10-15T08:04:39.945Z,15.23
2017-10-15T08:07:07.537Z,27.23
2017-10-15T08:09:35.171Z,27.20
2017-10-15T08:12:02.810Z,24.10
2017-10-15T08:14:31.214Z,13.80
2017-10-15T08:16:58.817Z,17.27
2017-10-15T08:19:26.443Z,30.20
2017-10-15T08:21:54.064Z,16.10
2017-10-15T08:24:21.670Z,15.00
2017-10-15T08:26:49.315Z,25.57
2017-10-15T08:29:16.953Z,12.90
2017-10-15T08:31:45.509Z,40.93
2017-10-15T08:34:13.369Z,16.43
2017-10-15T08:36:40.969Z,31.27
2017-10-15T08:39:09.395Z,25.60
2017-10-15T08:41:37.180Z,16.60
2017-10-15T08:44:04.797Z,16.10
2017-10-15T08:46:32.428Z,20.30
2017-10-15T08:49:00.794Z,27.07
2017-10-15T08:51:29.962Z,32.20
2017-10-15T08:53:57.557Z,21.17
2017-10-15T08:56:25.232Z,21.93
2017-10-15T08:58:53.651Z,13.07
2017-10-15T09:01:21.461Z,14.47
2017-10-15T09:03:49.109Z,17.53
2017-10-15T09:06:16.758Z,25.03
2017-10-15T09:08:44.538Z,30.13
2017-10-15T09:11:12.177Z,32.40
2017-10-15T09:13:39.777Z,12.40
2017-10-15T09:16:07.711Z,19.07
2017-10-15T09:18:35.333Z,16.67
2017-10-15T09:21:03.134Z,11.13
2017-10-15T09:23:30.785Z,11.50
2017-10-15T09:25:58.386Z,19.13
2017-10-15T09:28:26.127Z,10.53
2017-10-15T09:30:53.745Z,18.40
2017-10-15T09:33:21.457Z,24.17
2017-10-15T09:35:49.309Z,17.87
2017-10-15T09:38:16.925Z,21.73
2017-10-15T09:40:45.335Z,18.60
2017-10-15T09:43:13.113Z,22.27
2017-10-15T09:45:40.756Z,8.87
2017-10-15T09:48:08.410Z,17.30
2017-10-15T09:50:36.013Z,13.23
2017-10-15T09:53:03.662Z,20.83
2017-10-15T09:55:31.276Z,16.10
2017-10-15T09:58:00.661Z,17.73
2017-10-15T10:00:29.163Z,11.30
2017-10-15T10:02:57.587Z,9.80
2017-10-15T10:05:25.222Z,10.57
2017-10-15T10:07:52.835Z,10.30
2017-10-15T10:10:20.473Z,12.07
2017-10-15T10:12:48.239Z,6.23
2017-10-15T10:15:15.901Z,10.50
2017-10-15T10:17:43.542Z,7.37
2017-10-15T10:20:11.154Z,8.20
2017-10-15T10:22:39.557Z,9.20
2017-10-15T10:25:07.273Z,5.23
2017-10-15T10:27:34.887Z,5.30
2017-10-15T10:30:02.526Z,5.60
2017-10-15T10:32:30.903Z,5.90
2017-10-15T10:34:59.336Z,8.27
2017-10-15T10:37:26.947Z,6.00
2017-10-15T10:39:55.301Z,5.93
2017-10-15T10:42:22.939Z,4.93
2017-10-15T10:44:50.540Z,6.13
2017-10-15T10:47:18.951Z,6.20
2017-10-15T10:49:46.550Z,4.37
2017-10-15T10:52:14.205Z,7.03
2017-10-15T10:54:41.804Z,9.63
2017-10-15T10:57:10.166Z,5.03
2017-10-15T10:59:39.306Z,4.37
2017-10-15T11:02:06.905Z,5.80
2017-10-15T11:04:34.529Z,5.03
2017-10-15T11:07:02.126Z,5.17
2017-10-15T11:09:29.762Z,4.63
2017-10-15T11:11:57.440Z,3.47
2017-10-15T11:14:25.065Z,5.10
2017-10-15T11:16:52.698Z,3.87
2017-10-15T11:19:21.081Z,4.10
2017-10-15T11:21:49.468Z,6.63
2017-10-15T11:24:17.837Z,9.17
2017-10-15T11:26:46.256Z,5.27
2017-10-15T11:29:13.866Z,4.03
2017-10-15T11:31:41.479Z,4.47
2017-10-15T11:34:09.107Z,6.70
2017-10-15T11:36:37.469Z,5.47
2017-10-15T11:39:05.093Z,4.27
2017-10-15T11:41:32.697Z,3.40
2017-10-15T11:44:00.298Z,7.50
2017-10-15T11:46:27.929Z,4.53
2017-10-15T11:48:56.304Z,4.40
2017-10-15T11:51:24.700Z,5.83
2017-10-15T11:53:53.063Z,3.77
2017-10-15T11:56:21.473Z,5.30
2017-10-15T11:58:49.073Z,3.13
2017-10-15T12:01:16.693Z,13.60
2017-10-15T12:03:44.318Z,4.10
2017-10-15T12:06:12.692Z,4.07
2017-10-15T12:08:40.317Z,3.90
2017-10-15T12:11:07.909Z,5.40
2017-10-15T12:13:37.037Z,3.70
2017-10-15T12:16:04.639Z,4.20
2017-10-15T12:18:32.238Z,4.33
2017-10-15T12:21:00.677Z,3.63
2017-10-15T12:23:28.335Z,3.07
2017-10-15T12:25:55.960Z,4.47
2017-10-15T12:28:23.562Z,3.30
2017-10-15T12:30:51.158Z,4.60
2017-10-15T12:33:19.559Z,4.83
2017-10-15T12:35:47.179Z,3.30
2017-10-15T12:38:14.805Z,2.80
2017-10-15T12:40:42.409Z,2.73
2017-10-15T12:43:11.505Z,3.20
2017-10-15T12:45:39.132Z,6.40
2017-10-15T12:48:06.726Z,3.80
2017-10-15T12:50:34.365Z,3.30
2017-10-15T12:53:01.972Z,4.70
2017-10-15T12:55:30.357Z,3.00
2017-10-15T12:57:58.762Z,3.03
2017-10-15T13:00:26.367Z,7.33
2017-10-15T13:02:54.010Z,3.17
2017-10-15T13:05:21.610Z,3.43
2017-10-15T13:07:49.981Z,3.73
2017-10-15T13:10:18.453Z,4.40
2017-10-15T13:12:46.049Z,6.93
2017-10-15T13:15:13.673Z,3.43
2017-10-15T13:17:41.270Z,5.80
2017-10-15T13:20:08.980Z,5.53
2017-10-15T13:22:36.624Z,3.10
2017-10-15T13:25:04.242Z,3.67
2017-10-15T13:27:32.658Z,3.10
2017-10-15T13:30:00.259Z,2.93
2017-10-15T13:32:27.882Z,2.80
2017-10-15T13:34:55.585Z,2.93
2017-10-15T13:37:23.202Z,2.50
2017-10-15T13:39:50.847Z,4.10
2017-10-15T13:42:18.472Z,2.77
2017-10-15T13:44:46.102Z,3.00
2017-10-15T13:47:13.707Z,2.17
2017-10-15T13:49:42.076Z,7.37
2017-10-15T13:52:10.466Z,2.77
2017-10-15T13:54:38.846Z,4.20
2017-10-15T13:57:06.478Z,4.90
2017-10-15T13:59:34.077Z,2.70
2017-10-15T14:02:01.683Z,3.47
2017-10-15T14:04:29.462Z,2.80
2017-10-15T14:06:57.831Z,4.87
2017-10-15T14:09:25.599Z,2.93
2017-10-15T14:11:53.216Z,2.40
2017-10-15T14:14:20.814Z,3.10
2017-10-15T14:16:49.235Z,2.40
2017-10-15T14:19:17.602Z,2.70
2017-10-15T14:21:46.109Z,3.20
2017-10-15T14:24:14.465Z,2.60
2017-10-15T14:26:42.857Z,2.90
2017-10-15T14:29:10.478Z,3.90
2017-10-15T14:31:38.122Z,2.20
2017-10-15T14:34:05.724Z,2.90
2017-10-15T14:36:34.092Z,2.50
2017-10-15T14:39:01.705Z,2.57
2017-10-15T14:41:29.320Z,2.37
2017-10-15T14:43:57.713Z,2.40
2017-10-15T14:46:26.073Z,3.20
2017-10-15T14:48:53.669Z,3.10
2017-10-15T14:51:21.298Z,2.73
2017-10-15T14:53:49.670Z,2.80
2017-10-15T14:56:18.072Z,3.57
2017-10-15T14:58:46.434Z,2.40
2017-10-15T15:01:14.061Z,3.37
2017-10-15T15:03:41.687Z,2.60
2017-10-15T15:06:09.286Z,2.77
2017-10-15T15:08:36.918Z,3.93
2017-10-15T15:11:04.508Z,2.67
2017-10-15T15:13:32.157Z,2.30
2017-10-15T15:15:59.749Z,2.57
2017-10-15T15:18:27.350Z,5.53
2017-10-15T15:20:54.981Z,2.93
2017-10-15T15:23:23.354Z,4.60
2017-10-15T15:25:52.502Z,2.77
2017-10-15T15:28:20.117Z,3.83
2017-10-15T15:30:47.724Z,2.70
2017-10-15T15:33:15.357Z,3.63
2017-10-15T15:35:43.717Z,3.13
2017-10-15T15:38:12.120Z,3.40
2017-10-15T15:40:39.733Z,2.90
2017-10-15T15:43:07.317Z,2.93
2017-10-15T15:45:35.796Z,3.43
2017-10-15T15:48:04.265Z,2.63
2017-10-15T15:50:32.572Z,4.57
2017-10-15T15:53:00.933Z,2.10
2017-10-15T15:55:29.302Z,3.23
2017-10-15T15:57:56.921Z,4.67
2017-10-15T16:00:24.710Z,2.47
2017-10-15T16:02:52.575Z,2.80
2017-10-15T16:05:20.300Z,2.93
2017-10-15T16:07:48.028Z,6.30
2017-10-15T16:10:15.822Z,6.00
2017-10-15T16:12:43.531Z,3.33
2017-10-15T16:15:11.426Z,2.70
2017-10-15T16:17:39.916Z,3.40
2017-10-15T16:20:08.396Z,6.20
2017-10-15T16:22:36.941Z,4.20
2017-10-15T16:25:04.677Z,3.20
2017-10-15T16:27:32.458Z,4.17
2017-10-15T16:30:00.192Z,3.23
2017-10-15T16:32:28.356Z,3.87
2017-10-15T16:34:56.315Z,4.23
2017-10-15T16:37:24.102Z,3.40
2017-10-15T16:39:56.942Z,4.23
2017-10-15T16:42:24.659Z,4.37
2017-10-15T16:44:52.405Z,3.87
2017-10-15T16:47:20.196Z,4.33
2017-10-15T16:49:47.978Z,3.67
2017-10-15T16:52:15.778Z,3.00
2017-10-15T16:54:43.458Z,2.83
2017-10-15T16:57:11.171Z,7.97
2017-10-15T16:59:38.852Z,4.87
2017-10-15T17:02:06.628Z,4.30
2017-10-15T17:04:34.455Z,2.73
2017-10-15T17:07:02.263Z,5.13
2017-10-15T17:09:30.893Z,5.53
2017-10-15T17:11:58.668Z,4.67
2017-10-15T17:14:26.400Z,3.53
2017-10-15T17:16:54.156Z,4.40
2017-10-15T17:19:22.695Z,4.10
2017-10-15T17:21:50.561Z,4.50
2017-10-15T17:24:19.148Z,4.33
2017-10-15T17:26:46.994Z,3.90
2017-10-15T17:29:14.893Z,4.67
2017-10-15T17:31:43.464Z,7.53
2017-10-15T17:34:11.358Z,3.60
2017-10-15T17:36:39.973Z,4.20
2017-10-15T17:39:07.879Z,5.00
2017-10-15T17:41:35.753Z,4.50
2017-10-15T17:44:03.608Z,3.23
2017-10-15T17:46:31.402Z,3.17
2017-10-15T17:48:59.225Z,5.30
2017-10-15T17:51:27.040Z,4.80
2017-10-15T17:53:55.589Z,3.20
2017-10-15T17:56:23.261Z,3.93
2017-10-15T17:58:50.925Z,4.13
2017-10-15T18:01:18.535Z,4.53
2017-10-15T18:03:46.129Z,4.70
2017-10-15T18:06:13.756Z,5.00
2017-10-15T18:08:41.349Z,6.27
2017-10-15T18:11:08.985Z,4.33
2017-10-15T18:13:36.577Z,4.23
2017-10-15T18:16:04.173Z,4.90
2017-10-15T18:18:32.575Z,5.27
2017-10-15T18:21:00.169Z,4.90
2017-10-15T18:23:27.791Z,4.40
2017-10-15T18:25:56.162Z,4.03
2017-10-15T18:28:24.557Z,5.00
2017-10-15T18:30:52.170Z,4.97
2017-10-15T18:33:20.622Z,6.90
2017-10-15T18:35:48.265Z,4.20
2017-10-15T18:38:15.872Z,4.23
2017-10-15T18:40:43.507Z,4.40
2017-10-15T18:43:11.101Z,14.83
2017-10-15T18:45:39.469Z,5.53
2017-10-15T18:48:07.117Z,5.90
2017-10-15T18:50:34.714Z,3.90
2017-10-15T18:53:03.110Z,4.33
2017-10-15T18:55:31.475Z,5.00
2017-10-15T18:57:59.877Z,4.13
2017-10-15T19:00:27.478Z,9.80
2017-10-15T19:02:55.074Z,3.73
2017-10-15T19:05:23.465Z,5.30
2017-10-15T19:07:52.442Z,6.10
2017-10-15T19:10:20.846Z,3.80
2017-10-15T19:12:48.465Z,3.60
2017-10-15T19:15:16.228Z,4.90
2017-10-15T19:17:44.600Z,6.20
2017-10-15T19:20:12.228Z,8.20
2017-10-15T19:22:39.903Z,5.03
2017-10-15T19:25:07.546Z,5.93
2017-10-15T19:27:35.197Z,3.93
2017-10-15T19:30:02.810Z,6.63
2017-10-15T19:32:30.452Z,4.83
2017-10-15T19:34:58.054Z,5.00
2017-10-15T19:37:26.436Z,5.07
2017-10-15T19:39:54.797Z,5.97
2017-10-15T19:42:22.433Z,5.73
2017-10-15T19:44:50.021Z,4.43
2017-10-15T19:47:17.639Z,5.20
2017-10-15T19:49:45.264Z,5.53
2017-10-15T19:52:13.637Z,5.20
2017-10-15T19:54:41.267Z,4.90
2017-10-15T19:57:08.977Z,4.30
2017-10-15T19:59:36.737Z,5.77
2017-10-15T20:02:05.294Z,5.30
2017-10-15T20:04:33.043Z,4.63
2017-10-15T20:07:00.826Z,5.67
2017-10-15T20:09:29.350Z,4.47
2017-10-15T20:11:57.146Z,4.97
2017-10-15T20:14:24.885Z,8.50
2017-10-15T20:16:52.705Z,9.40
2017-10-15T20:19:20.464Z,7.77
2017-10-15T20:21:48.277Z,3.90
2017-10-15T20:24:16.057Z,4.23
2017-10-15T20:26:43.803Z,8.57
2017-10-15T20:29:11.583Z,5.20
2017-10-15T20:31:39.329Z,6.27
2017-10-15T20:34:07.104Z,6.50
2017-10-15T20:36:34.915Z,6.10
2017-10-15T20:39:02.698Z,5.10
2017-10-15T20:41:31.268Z,4.40
2017-10-15T20:43:59.024Z,9.90
2017-10-15T20:46:26.828Z,4.23
2017-10-15T20:48:54.644Z,4.60
2017-10-15T20:51:22.345Z,5.97
2017-10-15T20:53:50.709Z,9.50
2017-10-15T20:56:19.078Z,6.93
2017-10-15T20:58:46.707Z,6.40
2017-10-15T21:01:14.303Z,6.10
2017-10-15T21:03:41.921Z,7.20
2017-10-15T21:06:09.534Z,6.50
2017-10-15T21:08:37.938Z,7.17
2017-10-15T21:11:05.675Z,7.40
2017-10-15T21:13:34.069Z,7.30
2017-10-15T21:16:02.433Z,7.07
2017-10-15T21:18:30.873Z,4.77
2017-10-15T21:20:58.527Z,4.90
2017-10-15T21:23:26.117Z,5.63
2017-10-15T21:25:54.541Z,6.57
2017-10-15T21:28:22.137Z,10.40
2017-10-15T21:30:49.797Z,5.17
2017-10-15T21:33:17.426Z,4.50
2017-10-15T21:35:45.022Z,6.50
2017-10-15T21:38:12.655Z,9.50
2017-10-15T21:40:40.310Z,7.73
2017-10-15T21:43:07.953Z,8.07
2017-10-15T21:45:36.330Z,5.87
2017-10-15T21:48:04.727Z,7.40
2017-10-15T21:50:32.329Z,10.57
2017-10-15T21:52:59.926Z,9.23
2017-10-15T21:55:28.313Z,6.40
2017-10-15T21:57:56.669Z,4.97
2017-10-15T22:00:25.809Z,9.20
2017-10-15T22:02:53.402Z,8.40
2017-10-15T22:05:21.034Z,5.60
2017-10-15T22:07:48.636Z,6.90
2017-10-15T22:10:16.381Z,5.33
2017-10-15T22:12:43.974Z,6.40
2017-10-15T22:15:11.573Z,8.93
2017-10-15T22:17:39.243Z,6.73
2017-10-15T22:20:06.842Z,6.90
2017-10-15T22:22:34.484Z,6.33
2017-10-15T22:25:02.085Z,5.53
2017-10-15T22:27:30.474Z,5.93
2017-10-15T22:29:58.837Z,8.00
2017-10-15T22:32:27.250Z,10.70
2017-10-15T22:34:54.856Z,7.20
2017-10-15T22:37:22.457Z,7.00
2017-10-15T22:39:51.030Z,4.87
2017-10-15T22:42:19.460Z,5.17
2017-10-15T22:44:47.082Z,8.77
2017-10-15T22:47:14.686Z,8.27
2017-10-15T22:49:42.336Z,5.47
2017-10-15T22:52:09.947Z,11.53
2017-10-15T22:54:38.314Z,6.87
2017-10-15T22:57:05.937Z,5.77
2017-10-15T22:59:33.558Z,9.40
2017-10-15T23:02:01.957Z,6.20
2017-10-15T23:04:29.552Z,5.90
2017-10-15T23:06:57.186Z,5.90
2017-10-15T23:09:24.796Z,9.60
2017-10-15T23:11:52.405Z,10.67
2017-10-15T23:14:20.027Z,6.73
2017-10-15T23:16:47.623Z,16.40
2017-10-15T23:19:15.257Z,11.17
2017-10-15T23:21:43.626Z,6.50
2017-10-15T23:24:12.029Z,7.07
2017-10-15T23:26:40.393Z,5.50
2017-10-15T23:29:08.797Z,6.50
2017-10-15T23:31:36.395Z,10.37
2017-10-15T23:34:03.993Z,7.40
2017-10-15T23:36:32.377Z,7.73
2017-10-15T23:39:00.744Z,6.87
2017-10-15T23:41:29.155Z,12.87
2017-10-15T23:43:56.761Z,5.10
2017-10-15T23:46:24.411Z,6.33
2017-10-15T23:48:52.008Z,5.83
2017-10-15T23:51:20.377Z,10.60
2017-10-15T23:53:48.000Z,7.60
2017-10-15T23:56:15.593Z,5.93
2017-10-15T23:58:44.008Z,5.73
